sensor_id;sensor_type;location;lat;lon;timestamp;pressure;altitude;pressure_sealevel;temperature;humidity
79645;BME280;69117;47.148;18.954;2023-11-18T00:00:10;100491.38;;;3.84;100.00
79645;BME280;69117;47.148;18.954;2023-11-18T00:03:14;100497.06;;;3.91;100.00
79645;BME280;69117;47.148;18.954;2023-11-18T00:06:19;100496.66;;;3.97;100.00
79645;BME280;69117;47.148;18.954;2023-11-18T00:09:20;100500.59;;;3.90;100.00
79645;BME280;69117;47.148;18.954;2023-11-18T00:12:23;100487.31;;;3.93;100.00
79645;BME280;69117;47.148;18.954;2023-11-18T00:15:25;100487.53;;;3.90;100.00
79645;BME280;69117;47.148;18.954;2023-11-18T00:18:27;100486.59;;;3.91;100.00
79645;BME280;69117;47.148;18.954;2023-11-18T00:21:28;100487.84;;;3.85;100.00
79645;BME280;69117;47.148;18.954;2023-11-18T00:24:30;100489.22;;;3.91;100.00
79645;BME280;69117;47.148;18.954;2023-11-18T00:27:35;100499.50;;;3.80;100.00
79645;BME280;69117;47.148;18.954;2023-11-18T00:30:40;100486.59;;;3.91;100.00
79645;BME280;69117;47.148;18.954;2023-11-18T00:33:41;100486.69;;;3.89;100.00
79645;BME280;69117;47.148;18.954;2023-11-18T00:36:43;100504.25;;;3.87;100.00
79645;BME280;69117;47.148;18.954;2023-11-18T00:39:45;100514.03;;;3.84;100.00
79645;BME280;69117;47.148;18.954;2023-11-18T00:42:46;100511.44;;;3.84;100.00
79645;BME280;69117;47.148;18.954;2023-11-18T00:45:48;100505.69;;;3.79;100.00
79645;BME280;69117;47.148;18.954;2023-11-18T00:48:49;100515.38;;;3.77;100.00
79645;BME280;69117;47.148;18.954;2023-11-18T00:51:51;100498.88;;;3.76;100.00
79645;BME280;69117;47.148;18.954;2023-11-18T00:54:53;100520.72;;;3.75;100.00
79645;BME280;69117;47.148;18.954;2023-11-18T00:57:54;100520.44;;;3.65;100.00
79645;BME280;69117;47.148;18.954;2023-11-18T01:00:56;100536.66;;;3.71;100.00
79645;BME280;69117;47.148;18.954;2023-11-18T01:03:57;100533.59;;;3.64;100.00
79645;BME280;69117;47.148;18.954;2023-11-18T01:07:00;100540.88;;;3.59;100.00
79645;BME280;69117;47.148;18.954;2023-11-18T01:10:02;100530.63;;;3.56;100.00
79645;BME280;69117;47.148;18.954;2023-11-18T01:13:05;100521.75;;;3.58;100.00
79645;BME280;69117;47.148;18.954;2023-11-18T01:16:07;100536.94;;;3.66;100.00
79645;BME280;69117;47.148;18.954;2023-11-18T01:19:10;100527.94;;;3.57;100.00
79645;BME280;69117;47.148;18.954;2023-11-18T01:22:12;100540.78;;;3.60;100.00
79645;BME280;69117;47.148;18.954;2023-11-18T01:25:15;100546.09;;;3.59;100.00
79645;BME280;69117;47.148;18.954;2023-11-18T01:28:19;100544.50;;;3.56;100.00
79645;BME280;69117;47.148;18.954;2023-11-18T01:31:21;100538.94;;;3.48;100.00
79645;BME280;69117;47.148;18.954;2023-11-18T01:34:23;100539.31;;;3.42;100.00
79645;BME280;69117;47.148;18.954;2023-11-18T01:37:24;100550.31;;;3.47;100.00
79645;BME280;69117;47.148;18.954;2023-11-18T01:40:26;100554.59;;;3.48;100.00
79645;BME280;69117;47.148;18.954;2023-11-18T01:43:28;100536.22;;;3.50;100.00
79645;BME280;69117;47.148;18.954;2023-11-18T01:46:29;100546.66;;;3.50;100.00
79645;BME280;69117;47.148;18.954;2023-11-18T01:49:32;100550.41;;;3.46;100.00
79645;BME280;69117;47.148;18.954;2023-11-18T01:52:37;100538.00;;;3.49;100.00
79645;BME280;69117;47.148;18.954;2023-11-18T01:55:40;100532.22;;;3.44;100.00
79645;BME280;69117;47.148;18.954;2023-11-18T01:58:41;100528.75;;;3.43;100.00
79645;BME280;69117;47.148;18.954;2023-11-18T02:01:46;100536.69;;;3.56;100.00
79645;BME280;69117;47.148;18.954;2023-11-18T02:04:49;100549.00;;;3.40;100.00
79645;BME280;69117;47.148;18.954;2023-11-18T02:07:51;100554.59;;;3.48;100.00
79645;BME280;69117;47.148;18.954;2023-11-18T02:11:00;100551.13;;;3.48;100.00
79645;BME280;69117;47.148;18.954;2023-11-18T02:14:05;100555.63;;;3.46;100.00
79645;BME280;69117;47.148;18.954;2023-11-18T02:17:14;100555.31;;;3.36;100.00
79645;BME280;69117;47.148;18.954;2023-11-18T02:20:17;100544.63;;;3.40;100.00
79645;BME280;69117;47.148;18.954;2023-11-18T02:23:22;100547.41;;;3.37;100.00
79645;BME280;69117;47.148;18.954;2023-11-18T02:26:25;100548.44;;;3.49;100.00
79645;BME280;69117;47.148;18.954;2023-11-18T02:29:30;100554.78;;;3.45;100.00
79645;BME280;69117;47.148;18.954;2023-11-18T02:32:41;100533.34;;;3.40;100.00
79645;BME280;69117;47.148;18.954;2023-11-18T02:35:53;100547.69;;;3.47;100.00
79645;BME280;69117;47.148;18.954;2023-11-18T02:38:59;100566.72;;;3.49;100.00
79645;BME280;69117;47.148;18.954;2023-11-18T02:42:02;100565.25;;;3.45;100.00
79645;BME280;69117;47.148;18.954;2023-11-18T02:45:07;100567.84;;;3.45;100.00
79645;BME280;69117;47.148;18.954;2023-11-18T02:48:10;100576.41;;;3.47;100.00
79645;BME280;69117;47.148;18.954;2023-11-18T02:51:12;100571.19;;;3.47;100.00
79645;BME280;69117;47.148;18.954;2023-11-18T02:54:13;100578.31;;;3.45;100.00
79645;BME280;69117;47.148;18.954;2023-11-18T02:57:17;100582.56;;;3.46;100.00
79645;BME280;69117;47.148;18.954;2023-11-18T03:00:19;100585.25;;;3.44;100.00
79645;BME280;69117;47.148;18.954;2023-11-18T03:03:23;100593.47;;;3.38;100.00
79645;BME280;69117;47.148;18.954;2023-11-18T03:06:25;100588.63;;;3.47;100.00
79645;BME280;69117;47.148;18.954;2023-11-18T03:09:27;100593.59;;;3.51;100.00
79645;BME280;69117;47.148;18.954;2023-11-18T03:12:29;100596.00;;;3.40;100.00
79645;BME280;69117;47.148;18.954;2023-11-18T03:15:30;100595.25;;;3.38;100.00
79645;BME280;69117;47.148;18.954;2023-11-18T03:18:32;100598.63;;;3.40;100.00
79645;BME280;69117;47.148;18.954;2023-11-18T03:21:34;100607.69;;;3.49;100.00
79645;BME280;69117;47.148;18.954;2023-11-18T03:24:35;100612.25;;;3.45;100.00
79645;BME280;69117;47.148;18.954;2023-11-18T03:27:37;100607.56;;;3.50;100.00
79645;BME280;69117;47.148;18.954;2023-11-18T03:30:38;100614.75;;;3.47;100.00
79645;BME280;69117;47.148;18.954;2023-11-18T03:33:40;100618.19;;;3.47;100.00
79645;BME280;69117;47.148;18.954;2023-11-18T03:36:45;100618.56;;;3.41;100.00
79645;BME280;69117;47.148;18.954;2023-11-18T03:39:46;100623.91;;;3.39;100.00
79645;BME280;69117;47.148;18.954;2023-11-18T03:42:48;100615.41;;;3.50;100.00
79645;BME280;69117;47.148;18.954;2023-11-18T03:45:50;100632.66;;;3.53;100.00
79645;BME280;69117;47.148;18.954;2023-11-18T03:48:53;100631.25;;;3.47;100.00
79645;BME280;69117;47.148;18.954;2023-11-18T03:51:55;100627.72;;;3.48;100.00
79645;BME280;69117;47.148;18.954;2023-11-18T03:54:56;100646.91;;;3.47;100.00
79645;BME280;69117;47.148;18.954;2023-11-18T03:57:58;100635.47;;;3.50;100.00
79645;BME280;69117;47.148;18.954;2023-11-18T04:01:01;100638.25;;;3.47;100.00
79645;BME280;69117;47.148;18.954;2023-11-18T04:04:02;100641.81;;;3.46;100.00
79645;BME280;69117;47.148;18.954;2023-11-18T04:07:06;100642.00;;;3.42;100.00
79645;BME280;69117;47.148;18.954;2023-11-18T04:10:08;100650.47;;;3.46;100.00
79645;BME280;69117;47.148;18.954;2023-11-18T04:13:12;100647.22;;;3.42;100.00
79645;BME280;69117;47.148;18.954;2023-11-18T04:16:14;100649.34;;;3.50;100.00
79645;BME280;69117;47.148;18.954;2023-11-18T04:19:20;100655.72;;;3.60;100.00
79645;BME280;69117;47.148;18.954;2023-11-18T04:22:22;100642.91;;;3.56;100.00
79645;BME280;69117;47.148;18.954;2023-11-18T04:25:24;100652.19;;;3.76;100.00
79645;BME280;69117;47.148;18.954;2023-11-18T04:28:26;100662.69;;;3.74;100.00
79645;BME280;69117;47.148;18.954;2023-11-18T04:31:28;100665.63;;;3.70;100.00
79645;BME280;69117;47.148;18.954;2023-11-18T04:34:29;100663.91;;;3.68;100.00
79645;BME280;69117;47.148;18.954;2023-11-18T04:37:31;100673.25;;;3.73;100.00
79645;BME280;69117;47.148;18.954;2023-11-18T04:40:33;100662.44;;;3.64;100.00
79645;BME280;69117;47.148;18.954;2023-11-18T04:43:35;100662.44;;;3.79;100.00
79645;BME280;69117;47.148;18.954;2023-11-18T04:46:46;100662.06;;;3.85;100.00
79645;BME280;69117;47.148;18.954;2023-11-18T04:49:47;100671.75;;;3.83;100.00
79645;BME280;69117;47.148;18.954;2023-11-18T04:52:49;100666.84;;;3.78;100.00
79645;BME280;69117;47.148;18.954;2023-11-18T04:55:51;100674.47;;;3.81;100.00
79645;BME280;69117;47.148;18.954;2023-11-18T04:58:53;100677.47;;;3.75;100.00
79645;BME280;69117;47.148;18.954;2023-11-18T05:01:55;100691.19;;;3.79;100.00
79645;BME280;69117;47.148;18.954;2023-11-18T05:04:57;100695.06;;;3.72;100.00
79645;BME280;69117;47.148;18.954;2023-11-18T05:07:59;100698.81;;;3.67;100.00
79645;BME280;69117;47.148;18.954;2023-11-18T05:11:00;100700.38;;;3.56;100.00
79645;BME280;69117;47.148;18.954;2023-11-18T05:14:02;100708.69;;;3.62;100.00
79645;BME280;69117;47.148;18.954;2023-11-18T05:17:05;100710.44;;;3.48;100.00
79645;BME280;69117;47.148;18.954;2023-11-18T05:20:07;100694.75;;;3.48;100.00
79645;BME280;69117;47.148;18.954;2023-11-18T05:23:12;100687.50;;;3.53;100.00
79645;BME280;69117;47.148;18.954;2023-11-18T05:26:14;100703.47;;;3.62;100.00
79645;BME280;69117;47.148;18.954;2023-11-18T05:29:16;100715.06;;;3.73;100.00
79645;BME280;69117;47.148;18.954;2023-11-18T05:32:18;100697.94;;;3.53;100.00
79645;BME280;69117;47.148;18.954;2023-11-18T05:35:21;100705.53;;;3.57;100.00
79645;BME280;69117;47.148;18.954;2023-11-18T05:38:29;100712.78;;;3.52;100.00
79645;BME280;69117;47.148;18.954;2023-11-18T05:41:36;100715.19;;;3.41;100.00
79645;BME280;69117;47.148;18.954;2023-11-18T05:44:41;100707.75;;;3.49;100.00
79645;BME280;69117;47.148;18.954;2023-11-18T05:47:44;100716.81;;;3.58;100.00
79645;BME280;69117;47.148;18.954;2023-11-18T05:50:45;100705.50;;;3.43;100.00
79645;BME280;69117;47.148;18.954;2023-11-18T05:53:49;100692.28;;;3.60;100.00
79645;BME280;69117;47.148;18.954;2023-11-18T05:56:53;100695.81;;;3.59;100.00
79645;BME280;69117;47.148;18.954;2023-11-18T05:59:58;100706.91;;;3.63;100.00
79645;BME280;69117;47.148;18.954;2023-11-18T06:03:00;100695.38;;;3.67;100.00
79645;BME280;69117;47.148;18.954;2023-11-18T06:06:02;100712.28;;;3.76;100.00
79645;BME280;69117;47.148;18.954;2023-11-18T06:09:04;100711.50;;;3.74;100.00
79645;BME280;69117;47.148;18.954;2023-11-18T06:12:10;100713.56;;;3.83;100.00
79645;BME280;69117;47.148;18.954;2023-11-18T06:15:11;100707.31;;;3.71;100.00
79645;BME280;69117;47.148;18.954;2023-11-18T06:18:16;100722.34;;;3.82;100.00
79645;BME280;69117;47.148;18.954;2023-11-18T06:21:24;100727.38;;;3.71;100.00
79645;BME280;69117;47.148;18.954;2023-11-18T06:24:29;100739.31;;;3.75;100.00
79645;BME280;69117;47.148;18.954;2023-11-18T06:27:31;100727.19;;;3.74;100.00
79645;BME280;69117;47.148;18.954;2023-11-18T06:30:33;100743.81;;;3.73;100.00
79645;BME280;69117;47.148;18.954;2023-11-18T06:33:39;100733.16;;;3.76;100.00
79645;BME280;69117;47.148;18.954;2023-11-18T06:36:45;100745.22;;;3.78;100.00
79645;BME280;69117;47.148;18.954;2023-11-18T06:39:47;100754.44;;;3.84;100.00
79645;BME280;69117;47.148;18.954;2023-11-18T06:42:50;100757.16;;;3.82;100.00
79645;BME280;69117;47.148;18.954;2023-11-18T06:45:51;100751.44;;;3.90;100.00
79645;BME280;69117;47.148;18.954;2023-11-18T06:48:54;100754.66;;;3.95;100.00
79645;BME280;69117;47.148;18.954;2023-11-18T06:51:56;100768.53;;;3.96;100.00
79645;BME280;69117;47.148;18.954;2023-11-18T06:54:57;100772.50;;;4.03;100.00
79645;BME280;69117;47.148;18.954;2023-11-18T06:57:59;100788.66;;;4.09;100.00
79645;BME280;69117;47.148;18.954;2023-11-18T07:01:01;100793.41;;;4.17;100.00
79645;BME280;69117;47.148;18.954;2023-11-18T07:04:02;100798.38;;;4.22;100.00
79645;BME280;69117;47.148;18.954;2023-11-18T07:07:04;100787.59;;;4.26;100.00
79645;BME280;69117;47.148;18.954;2023-11-18T07:10:06;100790.72;;;4.33;100.00
79645;BME280;69117;47.148;18.954;2023-11-18T07:13:08;100814.06;;;4.36;100.00
79645;BME280;69117;47.148;18.954;2023-11-18T07:16:10;100805.94;;;4.41;100.00
79645;BME280;69117;47.148;18.954;2023-11-18T07:19:11;100800.69;;;4.41;100.00
79645;BME280;69117;47.148;18.954;2023-11-18T07:22:21;100794.25;;;4.46;100.00
79645;BME280;69117;47.148;18.954;2023-11-18T07:25:23;100804.78;;;4.59;100.00
79645;BME280;69117;47.148;18.954;2023-11-18T07:28:24;100792.75;;;4.56;100.00
79645;BME280;69117;47.148;18.954;2023-11-18T07:31:27;100789.75;;;4.63;100.00
79645;BME280;69117;47.148;18.954;2023-11-18T07:34:31;100808.81;;;4.79;100.00
79645;BME280;69117;47.148;18.954;2023-11-18T07:37:35;100806.00;;;4.82;100.00
79645;BME280;69117;47.148;18.954;2023-11-18T07:40:37;100805.59;;;4.88;100.00
79645;BME280;69117;47.148;18.954;2023-11-18T07:43:44;100812.03;;;4.97;100.00
79645;BME280;69117;47.148;18.954;2023-11-18T07:46:45;100818.66;;;5.02;100.00
79645;BME280;69117;47.148;18.954;2023-11-18T07:49:47;100818.38;;;5.07;100.00
79645;BME280;69117;47.148;18.954;2023-11-18T07:52:49;100811.38;;;5.20;100.00
79645;BME280;69117;47.148;18.954;2023-11-18T07:55:52;100822.25;;;5.14;100.00
79645;BME280;69117;47.148;18.954;2023-11-18T07:58:54;100817.19;;;5.25;100.00
79645;BME280;69117;47.148;18.954;2023-11-18T08:01:56;100811.53;;;5.32;100.00
79645;BME280;69117;47.148;18.954;2023-11-18T08:04:57;100818.09;;;5.39;100.00
79645;BME280;69117;47.148;18.954;2023-11-18T08:07:59;100816.69;;;5.33;100.00
79645;BME280;69117;47.148;18.954;2023-11-18T08:11:01;100816.09;;;5.42;100.00
79645;BME280;69117;47.148;18.954;2023-11-18T08:14:03;100827.25;;;5.59;100.00
79645;BME280;69117;47.148;18.954;2023-11-18T08:17:05;100815.09;;;5.58;100.00
79645;BME280;69117;47.148;18.954;2023-11-18T08:20:07;100813.03;;;5.76;100.00
79645;BME280;69117;47.148;18.954;2023-11-18T08:23:16;100809.00;;;5.97;100.00
79645;BME280;69117;47.148;18.954;2023-11-18T08:26:17;100820.59;;;5.80;100.00
79645;BME280;69117;47.148;18.954;2023-11-18T08:29:19;100820.59;;;5.80;100.00
79645;BME280;69117;47.148;18.954;2023-11-18T08:32:21;100808.38;;;5.93;100.00
79645;BME280;69117;47.148;18.954;2023-11-18T08:35:24;100818.06;;;6.06;100.00
79645;BME280;69117;47.148;18.954;2023-11-18T08:38:27;100808.44;;;5.92;100.00
79645;BME280;69117;47.148;18.954;2023-11-18T08:41:29;100795.28;;;6.06;100.00
79645;BME280;69117;47.148;18.954;2023-11-18T08:44:32;100797.06;;;6.18;100.00
79645;BME280;69117;47.148;18.954;2023-11-18T08:47:34;100800.44;;;6.21;100.00
79645;BME280;69117;47.148;18.954;2023-11-18T08:50:37;100802.59;;;6.14;100.00
79645;BME280;69117;47.148;18.954;2023-11-18T08:53:41;100780.06;;;5.99;100.00
79645;BME280;69117;47.148;18.954;2023-11-18T08:56:43;100800.31;;;6.22;100.00
79645;BME280;69117;47.148;18.954;2023-11-18T08:59:45;100799.47;;;6.34;100.00
79645;BME280;69117;47.148;18.954;2023-11-18T09:02:47;100799.25;;;6.37;100.00
79645;BME280;69117;47.148;18.954;2023-11-18T09:05:59;100791.81;;;6.31;100.00
79645;BME280;69117;47.148;18.954;2023-11-18T09:09:05;100781.66;;;6.27;100.00
79645;BME280;69117;47.148;18.954;2023-11-18T09:12:12;100799.56;;;6.46;100.00
79645;BME280;69117;47.148;18.954;2023-11-18T09:15:16;100795.28;;;6.45;100.00
79645;BME280;69117;47.148;18.954;2023-11-18T09:18:24;100782.56;;;6.51;100.00
79645;BME280;69117;47.148;18.954;2023-11-18T09:21:27;100778.56;;;6.46;100.00
79645;BME280;69117;47.148;18.954;2023-11-18T09:24:31;100803.22;;;6.56;100.00
79645;BME280;69117;47.148;18.954;2023-11-18T09:27:36;100799.31;;;6.61;100.00
79645;BME280;69117;47.148;18.954;2023-11-18T09:30:37;100811.50;;;6.75;100.00
79645;BME280;69117;47.148;18.954;2023-11-18T09:33:51;100816.09;;;6.72;100.00
79645;BME280;69117;47.148;18.954;2023-11-18T09:36:54;100827.75;;;6.80;100.00
79645;BME280;69117;47.148;18.954;2023-11-18T09:39:56;100836.72;;;7.02;100.00
79645;BME280;69117;47.148;18.954;2023-11-18T09:43:00;100827.59;;;6.95;100.00
79645;BME280;69117;47.148;18.954;2023-11-18T09:46:06;100848.34;;;7.23;100.00
79645;BME280;69117;47.148;18.954;2023-11-18T09:49:27;100848.88;;;7.16;100.00
79645;BME280;69117;47.148;18.954;2023-11-18T09:52:41;100845.72;;;7.23;100.00
79645;BME280;69117;47.148;18.954;2023-11-18T09:55:50;100831.84;;;7.21;100.00
79645;BME280;69117;47.148;18.954;2023-11-18T09:59:05;100835.13;;;7.12;100.00
79645;BME280;69117;47.148;18.954;2023-11-18T10:02:09;100843.47;;;7.54;100.00
79645;BME280;69117;47.148;18.954;2023-11-18T10:05:12;100839.13;;;7.42;100.00
79645;BME280;69117;47.148;18.954;2023-11-18T10:08:14;100824.25;;;7.29;100.00
79645;BME280;69117;47.148;18.954;2023-11-18T10:11:18;100824.94;;;7.55;100.00
79645;BME280;69117;47.148;18.954;2023-11-18T10:14:19;100812.63;;;7.45;100.00
79645;BME280;69117;47.148;18.954;2023-11-18T10:17:22;100822.00;;;7.36;100.00
79645;BME280;69117;47.148;18.954;2023-11-18T10:23:59;100820.91;;;7.87;100.00
79645;BME280;69117;47.148;18.954;2023-11-18T10:27:04;100813.88;;;8.10;100.00
79645;BME280;69117;47.148;18.954;2023-11-18T10:30:10;100823.34;;;8.23;100.00
79645;BME280;69117;47.148;18.954;2023-11-18T10:33:20;100812.06;;;8.10;100.00
79645;BME280;69117;47.148;18.954;2023-11-18T10:36:23;100807.78;;;8.09;100.00
79645;BME280;69117;47.148;18.954;2023-11-18T10:39:28;100812.53;;;8.51;100.00
79645;BME280;69117;47.148;18.954;2023-11-18T10:42:32;100831.31;;;8.68;100.00
79645;BME280;69117;47.148;18.954;2023-11-18T10:45:35;100832.59;;;8.74;100.00
79645;BME280;69117;47.148;18.954;2023-11-18T10:48:52;100849.88;;;8.78;100.00
79645;BME280;69117;47.148;18.954;2023-11-18T10:51:57;100846.50;;;8.87;100.00
79645;BME280;69117;47.148;18.954;2023-11-18T10:55:01;100866.25;;;8.82;100.00
79645;BME280;69117;47.148;18.954;2023-11-18T10:58:14;100850.69;;;8.90;100.00
79645;BME280;69117;47.148;18.954;2023-11-18T11:01:27;100860.75;;;8.51;100.00
79645;BME280;69117;47.148;18.954;2023-11-18T11:04:29;100865.97;;;9.30;100.00
79645;BME280;69117;47.148;18.954;2023-11-18T11:07:45;100859.22;;;9.80;100.00
79645;BME280;69117;47.148;18.954;2023-11-18T11:10:46;100857.13;;;9.52;100.00
79645;BME280;69117;47.148;18.954;2023-11-18T11:14:00;100859.13;;;9.92;100.00
79645;BME280;69117;47.148;18.954;2023-11-18T11:17:12;100855.78;;;9.69;99.67
79645;BME280;69117;47.148;18.954;2023-11-18T11:20:22;100836.75;;;9.10;100.00
79645;BME280;69117;47.148;18.954;2023-11-18T11:23:55;100818.25;;;9.33;100.00
79645;BME280;69117;47.148;18.954;2023-11-18T11:27:23;100791.09;;;8.66;100.00
79645;BME280;69117;47.148;18.954;2023-11-18T11:30:44;100822.41;;;8.92;100.00
79645;BME280;69117;47.148;18.954;2023-11-18T11:36:48;100841.66;;;9.58;100.00
79645;BME280;69117;47.148;18.954;2023-11-18T11:39:55;100860.78;;;9.28;100.00
79645;BME280;69117;47.148;18.954;2023-11-18T11:43:00;100887.53;;;9.24;100.00
79645;BME280;69117;47.148;18.954;2023-11-18T11:46:06;100875.53;;;9.31;100.00
79645;BME280;69117;47.148;18.954;2023-11-18T11:49:13;100891.16;;;8.89;100.00
79645;BME280;69117;47.148;18.954;2023-11-18T11:52:31;100892.13;;;8.99;100.00
79645;BME280;69117;47.148;18.954;2023-11-18T11:55:53;100898.19;;;9.22;100.00
79645;BME280;69117;47.148;18.954;2023-11-18T11:58:57;100894.22;;;9.50;100.00
79645;BME280;69117;47.148;18.954;2023-11-18T12:02:01;100902.78;;;9.63;100.00
79645;BME280;69117;47.148;18.954;2023-11-18T12:05:09;100905.19;;;9.55;100.00
79645;BME280;69117;47.148;18.954;2023-11-18T12:08:18;100916.22;;;9.60;100.00
79645;BME280;69117;47.148;18.954;2023-11-18T12:11:20;100902.16;;;9.71;100.00
79645;BME280;69117;47.148;18.954;2023-11-18T12:14:23;100925.72;;;10.16;97.52
79645;BME280;69117;47.148;18.954;2023-11-18T12:17:25;100937.66;;;9.67;96.75
79645;BME280;69117;47.148;18.954;2023-11-18T12:20:41;100938.84;;;10.60;95.28
79645;BME280;69117;47.148;18.954;2023-11-18T12:24:15;100927.00;;;10.85;93.90
79645;BME280;69117;47.148;18.954;2023-11-18T12:30:42;100933.44;;;10.92;92.09
79645;BME280;69117;47.148;18.954;2023-11-18T12:34:00;100925.44;;;10.72;89.50
79645;BME280;69117;47.148;18.954;2023-11-18T12:47:24;100942.63;;;7.52;100.00
79645;BME280;69117;47.148;18.954;2023-11-18T12:50:30;100960.09;;;7.53;100.00
79645;BME280;69117;47.148;18.954;2023-11-18T12:53:36;100949.78;;;7.50;100.00
79645;BME280;69117;47.148;18.954;2023-11-18T12:56:38;100951.25;;;7.54;100.00
79645;BME280;69117;47.148;18.954;2023-11-18T12:59:45;100963.16;;;7.47;100.00
79645;BME280;69117;47.148;18.954;2023-11-18T13:02:47;100962.88;;;7.39;100.00
79645;BME280;69117;47.148;18.954;2023-11-18T13:05:49;100964.97;;;7.33;100.00
79645;BME280;69117;47.148;18.954;2023-11-18T13:08:53;100953.19;;;7.39;100.00
79645;BME280;69117;47.148;18.954;2023-11-18T13:11:57;100960.16;;;7.27;100.00
79645;BME280;69117;47.148;18.954;2023-11-18T13:15:04;100961.13;;;7.26;100.00
79645;BME280;69117;47.148;18.954;2023-11-18T13:18:09;100965.94;;;7.20;100.00
79645;BME280;69117;47.148;18.954;2023-11-18T13:21:19;100952.59;;;7.10;100.00
79645;BME280;69117;47.148;18.954;2023-11-18T13:24:22;100960.50;;;7.10;100.00
79645;BME280;69117;47.148;18.954;2023-11-18T13:27:23;100930.03;;;6.95;100.00
79645;BME280;69117;47.148;18.954;2023-11-18T13:30:27;100959.47;;;7.00;100.00
79645;BME280;69117;47.148;18.954;2023-11-18T13:33:30;100963.34;;;7.07;100.00
79645;BME280;69117;47.148;18.954;2023-11-18T13:36:32;100965.44;;;7.15;100.00
79645;BME280;69117;47.148;18.954;2023-11-18T13:39:36;100966.47;;;7.25;100.00
79645;BME280;69117;47.148;18.954;2023-11-18T13:42:40;100958.16;;;7.31;100.00
79645;BME280;69117;47.148;18.954;2023-11-18T13:45:43;100962.88;;;7.39;100.00
79645;BME280;69117;47.148;18.954;2023-11-18T13:48:48;100971.78;;;7.49;100.00
79645;BME280;69117;47.148;18.954;2023-11-18T13:51:52;100972.59;;;7.49;100.00
79645;BME280;69117;47.148;18.954;2023-11-18T13:54:54;100973.03;;;7.43;100.00
79645;BME280;69117;47.148;18.954;2023-11-18T13:57:58;100975.50;;;7.33;100.00
79645;BME280;69117;47.148;18.954;2023-11-18T14:01:00;100963.19;;;7.34;100.00
79645;BME280;69117;47.148;18.954;2023-11-18T14:04:02;100981.50;;;7.36;100.00
79645;BME280;69117;47.148;18.954;2023-11-18T14:07:06;100981.28;;;7.26;100.00
79645;BME280;69117;47.148;18.954;2023-11-18T14:10:08;100976.88;;;7.14;100.00
79645;BME280;69117;47.148;18.954;2023-11-18T14:13:14;100986.66;;;7.11;100.00
79645;BME280;69117;47.148;18.954;2023-11-18T14:16:18;100991.59;;;7.03;100.00
79645;BME280;69117;47.148;18.954;2023-11-18T14:19:22;101008.19;;;7.04;100.00
79645;BME280;69117;47.148;18.954;2023-11-18T14:22:26;101008.00;;;7.07;100.00
79645;BME280;69117;47.148;18.954;2023-11-18T14:25:27;100992.03;;;6.97;100.00
79645;BME280;69117;47.148;18.954;2023-11-18T14:28:32;101000.22;;;6.93;100.00
79645;BME280;69117;47.148;18.954;2023-11-18T14:31:36;100997.38;;;6.83;100.00
79645;BME280;69117;47.148;18.954;2023-11-18T14:34:37;100994.00;;;6.68;100.00
79645;BME280;69117;47.148;18.954;2023-11-18T14:37:39;100977.53;;;6.66;100.00
79645;BME280;69117;47.148;18.954;2023-11-18T14:40:45;100994.72;;;6.57;100.00
79645;BME280;69117;47.148;18.954;2023-11-18T14:43:50;101007.94;;;6.43;100.00
79645;BME280;69117;47.148;18.954;2023-11-18T14:46:52;101007.09;;;6.42;100.00
79645;BME280;69117;47.148;18.954;2023-11-18T14:49:53;101012.94;;;6.33;100.00
79645;BME280;69117;47.148;18.954;2023-11-18T14:52:55;101019.84;;;6.22;100.00
79645;BME280;69117;47.148;18.954;2023-11-18T14:56:01;101019.78;;;6.09;100.00
79645;BME280;69117;47.148;18.954;2023-11-18T14:59:06;101016.03;;;6.13;100.00
79645;BME280;69117;47.148;18.954;2023-11-18T15:02:09;101036.38;;;6.09;100.00
79645;BME280;69117;47.148;18.954;2023-11-18T15:05:11;101040.81;;;5.94;100.00
79645;BME280;69117;47.148;18.954;2023-11-18T15:08:13;101024.69;;;5.86;100.00
79645;BME280;69117;47.148;18.954;2023-11-18T15:11:21;101037.84;;;5.72;100.00
79645;BME280;69117;47.148;18.954;2023-11-18T15:14:24;101042.06;;;5.60;100.00
79645;BME280;69117;47.148;18.954;2023-11-18T15:17:30;101041.88;;;5.49;100.00
79645;BME280;69117;47.148;18.954;2023-11-18T15:20:47;101042.25;;;5.43;100.00
79645;BME280;69117;47.148;18.954;2023-11-18T15:23:49;101033.19;;;5.34;100.00
79645;BME280;69117;47.148;18.954;2023-11-18T15:26:51;101042.34;;;5.56;100.00
79645;BME280;69117;47.148;18.954;2023-11-18T15:29:53;101056.84;;;5.61;100.00
79645;BME280;69117;47.148;18.954;2023-11-18T15:32:55;101057.69;;;5.47;100.00
79645;BME280;69117;47.148;18.954;2023-11-18T15:35:57;101046.34;;;5.47;100.00
79645;BME280;69117;47.148;18.954;2023-11-18T15:38:59;101061.81;;;5.37;100.00
79645;BME280;69117;47.148;18.954;2023-11-18T15:42:04;101055.53;;;5.25;100.00
79645;BME280;69117;47.148;18.954;2023-11-18T15:45:10;101071.34;;;5.24;100.00
79645;BME280;69117;47.148;18.954;2023-11-18T15:48:12;101055.50;;;5.11;100.00
79645;BME280;69117;47.148;18.954;2023-11-18T15:51:16;101058.59;;;5.03;100.00
79645;BME280;69117;47.148;18.954;2023-11-18T15:54:19;101062.91;;;4.90;100.00
79645;BME280;69117;47.148;18.954;2023-11-18T15:57:20;101074.31;;;5.03;100.00
79645;BME280;69117;47.148;18.954;2023-11-18T16:00:24;101072.06;;;4.97;100.00
79645;BME280;69117;47.148;18.954;2023-11-18T16:03:28;101082.78;;;4.93;100.00
79645;BME280;69117;47.148;18.954;2023-11-18T16:06:30;101081.53;;;4.84;100.00
79645;BME280;69117;47.148;18.954;2023-11-18T16:09:32;101093.25;;;4.78;100.00